Lacassine, Louisiana
Current Conditions -  °F | °C
As of 2:50 PM on Saturday 20 Dec 2014 (Local Time) from KCWF Reporting Station
Scattered Clouds Scattered Clouds  
Wind Chill: 59°   Ceiling: Unl
Heat Index: 59°   Visibility: 10mi
Dew Point: 48°   Wind: 9mph
Humidity: 67%   Direction: 30°NNE
Pressure: 30.12"   Gusts: NA
Location:  30.24°N, 92.92°W
Report Text: KCWF 202050Z 03008KT 10SM SCT017 15/09 A3012
Loading
Personal Weather Stations






























Interactive Weather Map New forecast layout! Learn more

10-Day Weather Forecast

Advertisements
Track Severe Weather on mobile